createdAt,value
2022-08-25T00:01:55.662Z,7.43
2022-08-25T00:04:25.039Z,8.30
2022-08-25T00:06:59.403Z,10.48
2022-08-25T00:13:44.089Z,8.35
2022-08-25T00:16:13.929Z,8.60
2022-08-25T00:18:45.131Z,7.10
2022-08-25T00:21:14.569Z,11.68
2022-08-25T00:23:43.097Z,7.78
2022-08-25T00:26:11.888Z,8.43
2022-08-25T00:28:40.676Z,7.10
2022-08-25T00:31:14.626Z,19.33
2022-08-25T00:33:43.199Z,10.02
2022-08-25T00:36:12.295Z,10.75
2022-08-25T00:38:40.567Z,7.88
2022-08-25T00:41:11.261Z,8.63
2022-08-25T00:43:47.550Z,7.90
2022-08-25T00:46:18.955Z,7.85
2022-08-25T00:48:51.977Z,7.30
2022-08-25T00:51:28.854Z,8.43
2022-08-25T00:53:57.520Z,8.50
2022-08-25T00:56:26.380Z,8.50
2022-08-25T00:58:54.896Z,8.88
2022-08-25T01:01:24.559Z,7.35
2022-08-25T01:03:53.147Z,9.00
2022-08-25T01:06:21.524Z,8.10
2022-08-25T01:08:49.787Z,8.50
2022-08-25T01:11:17.959Z,10.23
2022-08-25T01:13:54.516Z,11.48
2022-08-25T01:16:24.555Z,8.63
2022-08-25T01:18:56.419Z,9.18
2022-08-25T01:21:27.556Z,9.23
2022-08-25T01:23:58.287Z,9.25
2022-08-25T01:26:30.600Z,8.02
2022-08-25T01:29:17.841Z,8.20
2022-08-25T01:31:46.570Z,8.75
2022-08-25T01:34:15.649Z,8.03
2022-08-25T01:36:46.305Z,8.70
2022-08-25T01:39:15.502Z,9.55
2022-08-25T01:41:55.954Z,8.35
2022-08-25T01:44:25.022Z,8.38
2022-08-25T01:46:53.457Z,9.67
2022-08-25T01:49:21.704Z,9.85
2022-08-25T01:51:57.067Z,9.48
2022-08-25T01:54:25.460Z,10.50
2022-08-25T01:56:53.822Z,9.50
2022-08-25T01:59:24.390Z,9.73
2022-08-25T02:01:57.494Z,8.93
2022-08-25T02:04:29.632Z,9.73
2022-08-25T02:07:00.001Z,9.75
2022-08-25T02:09:28.484Z,9.75
2022-08-25T02:11:56.877Z,9.70
2022-08-25T02:14:25.663Z,11.43
2022-08-25T02:16:55.725Z,10.52
2022-08-25T02:19:25.974Z,11.20
2022-08-25T02:21:54.663Z,10.43
2022-08-25T02:24:24.307Z,12.03
2022-08-25T02:26:52.560Z,9.60
2022-08-25T02:29:20.705Z,9.43
2022-08-25T02:31:49.056Z,9.27
2022-08-25T02:34:17.617Z,9.10
2022-08-25T02:36:46.040Z,10.23
2022-08-25T02:39:14.475Z,9.27
2022-08-25T02:41:43.874Z,11.07
2022-08-25T02:44:12.432Z,9.88
2022-08-25T02:46:40.828Z,10.73
2022-08-25T02:49:09.525Z,9.33
2022-08-25T02:51:37.795Z,12.05
2022-08-25T02:54:07.139Z,12.52
2022-08-25T02:56:35.687Z,12.13
2022-08-25T02:59:05.636Z,11.95
2022-08-25T03:01:34.156Z,10.17
2022-08-25T03:04:02.897Z,8.70
2022-08-25T03:06:31.358Z,9.50
2022-08-25T03:08:59.721Z,9.40
2022-08-25T03:11:28.116Z,9.85
2022-08-25T03:13:56.903Z,13.30
2022-08-25T03:16:28.252Z,10.55
2022-08-25T03:18:57.623Z,11.00
2022-08-25T03:21:26.244Z,11.65
2022-08-25T03:23:54.666Z,8.73
2022-08-25T03:26:40.808Z,10.37
2022-08-25T03:29:10.592Z,9.85
2022-08-25T03:31:40.255Z,10.48
2022-08-25T03:34:09.302Z,14.10
2022-08-25T03:36:37.774Z,9.73
2022-08-25T03:39:08.399Z,11.37
2022-08-25T03:41:37.026Z,12.15
2022-08-25T03:44:06.823Z,12.45
2022-08-25T03:46:39.016Z,12.02
2022-08-25T03:49:10.910Z,11.35
2022-08-25T03:51:42.203Z,9.90
2022-08-25T03:54:11.582Z,10.40
2022-08-25T03:56:40.042Z,10.70
2022-08-25T03:59:10.221Z,11.43
2022-08-25T04:01:38.755Z,10.43
2022-08-25T04:04:09.789Z,11.53
2022-08-25T04:06:40.136Z,11.73
2022-08-25T04:09:08.734Z,10.73
2022-08-25T04:11:37.680Z,12.35
2022-08-25T04:14:06.444Z,10.30
2022-08-25T04:16:36.337Z,15.60
2022-08-25T04:19:10.346Z,10.05
2022-08-25T04:21:38.983Z,10.80
2022-08-25T04:24:08.738Z,12.98
2022-08-25T04:26:39.704Z,13.95
2022-08-25T04:29:10.319Z,11.70
2022-08-25T04:31:40.936Z,11.70
2022-08-25T04:34:13.467Z,12.57
2022-08-25T04:36:57.689Z,12.38
2022-08-25T04:39:26.183Z,12.32
2022-08-25T04:41:54.324Z,11.27
2022-08-25T04:44:22.725Z,11.75
2022-08-25T04:46:51.115Z,11.70
2022-08-25T04:49:20.677Z,12.68
2022-08-25T04:51:49.162Z,12.13
2022-08-25T04:54:21.700Z,14.73
2022-08-25T04:56:54.242Z,14.70
2022-08-25T04:59:23.154Z,14.45
2022-08-25T05:01:58.798Z,12.57
2022-08-25T05:04:29.359Z,12.82
2022-08-25T05:06:57.957Z,13.00
2022-08-25T05:09:26.532Z,15.05
2022-08-25T05:11:54.998Z,14.25
2022-08-25T05:14:26.374Z,13.18
2022-08-25T05:16:55.432Z,16.73
2022-08-25T05:19:24.615Z,12.23
2022-08-25T05:21:54.779Z,12.10
2022-08-25T05:24:26.327Z,12.27
2022-08-25T05:26:54.975Z,12.70
2022-08-25T05:29:23.578Z,11.57
2022-08-25T05:31:52.003Z,13.27
2022-08-25T05:34:21.676Z,14.10
2022-08-25T05:36:51.461Z,13.18
2022-08-25T05:39:21.028Z,13.43
2022-08-25T05:41:49.354Z,14.68
2022-08-25T05:44:20.815Z,11.67
2022-08-25T05:46:49.967Z,11.80
2022-08-25T05:49:20.455Z,14.05
2022-08-25T05:51:49.084Z,12.70
2022-08-25T05:54:17.728Z,12.45
2022-08-25T06:00:17.322Z,11.68
2022-08-25T06:02:46.282Z,12.45
2022-08-25T06:05:17.576Z,12.65
2022-08-25T06:07:46.174Z,13.88
2022-08-25T06:10:16.077Z,11.87
2022-08-25T06:12:46.596Z,14.70
2022-08-25T06:15:16.510Z,16.02
2022-08-25T06:17:44.813Z,12.68
2022-08-25T06:20:15.833Z,12.65
2022-08-25T06:22:44.412Z,15.47
2022-08-25T06:25:14.966Z,16.42
2022-08-25T06:27:43.876Z,13.02
2022-08-25T06:30:24.523Z,12.68
2022-08-25T06:32:57.238Z,13.18
2022-08-25T06:35:25.865Z,15.30
2022-08-25T06:37:54.806Z,14.13
2022-08-25T06:40:24.308Z,15.85
2022-08-25T06:42:52.796Z,17.10
2022-08-25T06:45:22.578Z,14.95
2022-08-25T06:47:52.888Z,16.87
2022-08-25T06:50:21.641Z,17.23
2022-08-25T06:52:50.274Z,12.57
2022-08-25T06:55:19.044Z,14.90
2022-08-25T06:57:47.524Z,16.40
2022-08-25T07:00:16.513Z,12.20
2022-08-25T07:02:47.131Z,17.40
2022-08-25T07:05:26.939Z,16.45
2022-08-25T07:07:55.999Z,14.48
2022-08-25T07:10:24.618Z,13.90
2022-08-25T07:12:53.211Z,12.83
2022-08-25T07:15:21.767Z,14.10
2022-08-25T07:17:51.771Z,13.32
2022-08-25T07:20:20.065Z,12.90
2022-08-25T07:22:49.161Z,15.18
2022-08-25T07:25:17.693Z,10.87
2022-08-25T07:27:47.123Z,14.15
2022-08-25T07:30:15.817Z,13.50
2022-08-25T07:32:47.808Z,12.55
2022-08-25T07:35:26.220Z,12.35
2022-08-25T07:37:59.858Z,11.80
2022-08-25T07:40:31.863Z,10.60
2022-08-25T07:43:04.010Z,12.25
2022-08-25T07:45:46.873Z,11.63
2022-08-25T07:48:23.808Z,10.77
2022-08-25T07:50:53.550Z,13.47
2022-08-25T07:53:22.703Z,10.88
2022-08-25T07:55:51.332Z,15.45
2022-08-25T07:58:22.050Z,10.15
2022-08-25T08:00:53.206Z,10.85
2022-08-25T08:03:42.195Z,8.93
2022-08-25T08:06:13.929Z,9.43
2022-08-25T08:08:45.380Z,13.23
2022-08-25T08:11:17.249Z,9.00
2022-08-25T08:13:45.755Z,9.30
2022-08-25T08:16:17.150Z,9.27
2022-08-25T08:18:46.372Z,8.65
2022-08-25T08:21:19.270Z,8.32
2022-08-25T08:23:48.491Z,10.65
2022-08-25T08:26:17.801Z,8.70
2022-08-25T08:28:51.903Z,8.90
2022-08-25T08:31:21.261Z,9.48
2022-08-25T08:33:50.200Z,8.75
2022-08-25T08:36:19.837Z,8.02
2022-08-25T08:38:48.910Z,12.02
2022-08-25T08:42:11.715Z,9.77
2022-08-25T08:44:52.106Z,10.00
2022-08-25T08:47:29.692Z,8.75
2022-08-25T08:50:05.942Z,8.48
2022-08-25T08:52:46.052Z,7.20
2022-08-25T08:55:25.248Z,9.90
2022-08-25T08:57:55.651Z,7.93
2022-08-25T09:00:24.369Z,9.70
2022-08-25T09:02:57.653Z,12.23
2022-08-25T09:05:30.512Z,7.75
2022-08-25T09:08:07.670Z,9.10
2022-08-25T09:10:43.058Z,9.93
2022-08-25T09:13:26.267Z,9.23
2022-08-25T09:16:22.402Z,10.70
2022-08-25T09:19:21.495Z,8.70
2022-08-25T09:21:58.305Z,11.97
2022-08-25T09:24:41.388Z,7.38
2022-08-25T09:27:19.790Z,8.82
2022-08-25T09:29:59.907Z,9.25
2022-08-25T09:32:31.595Z,7.25
2022-08-25T09:35:02.810Z,7.77
2022-08-25T09:37:31.410Z,6.85
2022-08-25T09:40:01.859Z,7.38
2022-08-25T09:42:49.715Z,7.90
2022-08-25T09:45:31.252Z,7.28
2022-08-25T09:47:59.762Z,8.10
2022-08-25T09:50:35.068Z,8.30
2022-08-25T09:53:17.616Z,6.80
2022-08-25T09:55:59.794Z,7.63
2022-08-25T09:58:31.636Z,7.18
2022-08-25T10:01:04.851Z,6.90
2022-08-25T10:03:36.508Z,6.75
2022-08-25T10:06:12.913Z,7.30
2022-08-25T10:08:56.071Z,7.63
2022-08-25T10:11:38.246Z,8.05
2022-08-25T10:14:19.216Z,6.57
2022-08-25T10:16:48.883Z,7.18
2022-08-25T10:19:26.317Z,6.95
2022-08-25T10:22:08.314Z,6.07
2022-08-25T10:24:43.925Z,7.10
2022-08-25T10:27:23.905Z,8.67
2022-08-25T10:30:04.299Z,9.82
2022-08-25T10:32:41.555Z,7.57
2022-08-25T10:35:16.699Z,10.10
2022-08-25T10:37:54.650Z,8.60
2022-08-25T10:40:31.729Z,7.07
2022-08-25T10:43:09.136Z,8.80
2022-08-25T10:45:53.748Z,8.82
2022-08-25T10:48:45.737Z,10.90
2022-08-25T10:51:36.188Z,9.45
2022-08-25T10:54:17.446Z,8.93
2022-08-25T10:56:53.123Z,10.32
2022-08-25T10:59:48.558Z,9.65
2022-08-25T11:02:58.852Z,13.82
2022-08-25T11:05:31.589Z,8.43
2022-08-25T11:08:08.518Z,12.33
2022-08-25T11:10:44.727Z,11.05
2022-08-25T11:13:23.617Z,9.15
2022-08-25T11:16:18.937Z,9.10
2022-08-25T11:18:54.265Z,10.02
2022-08-25T11:21:27.299Z,9.97
2022-08-25T11:24:05.697Z,10.27
2022-08-25T11:26:37.304Z,10.40
2022-08-25T11:29:12.718Z,9.45
2022-08-25T11:31:52.221Z,8.70
2022-08-25T11:34:23.432Z,10.17
2022-08-25T11:36:54.697Z,9.35
2022-08-25T11:39:38.627Z,9.60
2022-08-25T11:42:21.665Z,10.13
2022-08-25T11:44:59.549Z,10.30
2022-08-25T11:47:49.532Z,10.70
2022-08-25T11:50:31.768Z,9.02
2022-08-25T11:53:04.943Z,8.80
2022-08-25T11:55:51.349Z,10.30
2022-08-25T11:58:33.812Z,8.63
2022-08-25T12:01:03.757Z,11.37
2022-08-25T12:03:55.028Z,9.68
2022-08-25T12:06:27.870Z,10.57
2022-08-25T12:09:21.720Z,10.63
2022-08-25T12:11:55.164Z,8.55
2022-08-25T12:14:46.662Z,11.77
2022-08-25T12:17:24.186Z,10.32
2022-08-25T12:19:59.635Z,9.80
2022-08-25T12:22:54.162Z,12.20
2022-08-25T12:25:55.075Z,9.63
2022-08-25T12:28:51.577Z,12.30
2022-08-25T12:31:31.654Z,11.25
2022-08-25T12:34:14.229Z,13.60
2022-08-25T12:36:57.730Z,13.38
2022-08-25T12:39:34.865Z,16.58
2022-08-25T12:42:06.685Z,18.60
2022-08-25T12:44:40.278Z,13.15
2022-08-25T12:47:14.110Z,12.35
2022-08-25T12:49:42.798Z,11.65
2022-08-25T12:52:16.994Z,11.07
2022-08-25T12:54:55.213Z,10.23
2022-08-25T12:57:42.283Z,12.40
2022-08-25T13:00:23.615Z,10.32
2022-08-25T13:03:35.185Z,9.95
2022-08-25T13:06:23.200Z,10.68
2022-08-25T13:09:17.619Z,8.83
2022-08-25T13:11:49.685Z,8.60
2022-08-25T13:14:28.464Z,10.35
2022-08-25T13:16:58.534Z,8.82
2022-08-25T13:19:35.010Z,10.68
2022-08-25T13:22:16.460Z,9.00
2022-08-25T13:24:50.437Z,11.80
2022-08-25T13:27:28.292Z,11.30
2022-08-25T13:30:03.565Z,14.10
2022-08-25T13:32:35.413Z,12.88
2022-08-25T13:35:15.481Z,15.07
2022-08-25T13:37:45.245Z,10.77
2022-08-25T13:40:17.648Z,12.30
2022-08-25T13:42:54.340Z,8.63
2022-08-25T13:45:26.274Z,12.38
2022-08-25T13:47:55.749Z,18.13
2022-08-25T13:50:34.398Z,10.52
2022-08-25T13:53:11.351Z,14.45
2022-08-25T13:55:51.541Z,11.90
2022-08-25T13:58:32.331Z,13.85
2022-08-25T14:01:22.818Z,11.57
2022-08-25T14:04:25.154Z,14.65
2022-08-25T14:07:09.754Z,13.75
2022-08-25T14:09:41.687Z,15.80
2022-08-25T14:12:09.844Z,13.18
2022-08-25T14:14:37.953Z,12.07
2022-08-25T14:17:22.206Z,10.63
2022-08-25T14:20:02.773Z,14.55
2022-08-25T14:22:30.914Z,11.68
2022-08-25T14:24:59.505Z,15.20
2022-08-25T14:27:27.983Z,13.07
2022-08-25T14:29:56.215Z,13.52
2022-08-25T14:32:25.705Z,12.85
2022-08-25T14:34:56.111Z,13.32
2022-08-25T14:37:25.830Z,13.60
2022-08-25T14:40:00.967Z,13.67
2022-08-25T14:42:31.618Z,12.32
2022-08-25T14:45:00.259Z,14.45
2022-08-25T14:47:28.410Z,11.68
2022-08-25T14:49:56.562Z,11.30
2022-08-25T14:52:30.346Z,10.20
2022-08-25T14:54:58.843Z,11.13
2022-08-25T14:57:27.941Z,10.48
2022-08-25T14:59:56.031Z,13.45
2022-08-25T15:02:29.474Z,11.38
2022-08-25T15:05:00.869Z,13.73
2022-08-25T15:07:51.585Z,17.08
2022-08-25T15:10:21.662Z,15.95
2022-08-25T15:12:53.824Z,11.82
2022-08-25T15:15:22.212Z,11.00
2022-08-25T15:17:51.028Z,11.60
2022-08-25T15:20:19.561Z,12.13
2022-08-25T15:22:49.136Z,11.35
2022-08-25T15:25:18.149Z,8.02
2022-08-25T15:27:46.886Z,9.88
2022-08-25T15:30:15.924Z,8.97
2022-08-25T15:32:44.080Z,10.38
2022-08-25T15:35:16.999Z,9.70
2022-08-25T15:37:46.939Z,11.45
2022-08-25T15:40:16.670Z,12.52
2022-08-25T15:42:46.102Z,11.87
2022-08-25T15:45:15.091Z,10.35
2022-08-25T15:47:43.180Z,9.57
2022-08-25T15:50:14.758Z,8.15
2022-08-25T15:52:47.738Z,11.00
2022-08-25T15:55:19.966Z,13.03
2022-08-25T15:57:49.760Z,15.10
2022-08-25T16:00:19.277Z,12.18
2022-08-25T16:02:50.028Z,17.00
2022-08-25T16:05:22.479Z,14.77
2022-08-25T16:07:54.292Z,9.93
2022-08-25T16:10:23.815Z,12.60
2022-08-25T16:12:53.516Z,13.88
2022-08-25T16:15:24.063Z,11.27
2022-08-25T16:17:56.963Z,18.75
2022-08-25T16:20:26.224Z,12.70
2022-08-25T16:22:54.681Z,13.15
2022-08-25T16:25:24.815Z,12.60
2022-08-25T16:27:53.231Z,13.93
2022-08-25T16:30:21.854Z,13.38
2022-08-25T16:32:50.423Z,13.47
2022-08-25T16:35:18.934Z,18.08
2022-08-25T16:37:49.196Z,12.00
2022-08-25T16:40:19.049Z,13.68
2022-08-25T16:42:49.794Z,14.90
2022-08-25T16:45:18.311Z,18.07
2022-08-25T16:47:46.743Z,18.20
2022-08-25T16:50:17.207Z,14.35
2022-08-25T16:53:03.229Z,15.27
2022-08-25T16:55:39.494Z,18.50
2022-08-25T16:58:13.476Z,13.30
2022-08-25T17:00:43.857Z,12.90
2022-08-25T17:03:12.941Z,20.95
2022-08-25T17:05:43.882Z,16.25
2022-08-25T17:08:30.709Z,14.20
2022-08-25T17:11:10.749Z,13.23
2022-08-25T17:13:44.853Z,12.88
2022-08-25T17:16:15.076Z,13.85
2022-08-25T17:18:46.533Z,16.35
2022-08-25T17:21:24.079Z,14.65
2022-08-25T17:23:53.655Z,14.37
2022-08-25T17:26:27.798Z,13.10
2022-08-25T17:28:59.586Z,12.05
2022-08-25T17:31:28.836Z,15.52
2022-08-25T17:33:58.485Z,14.75
2022-08-25T17:36:27.503Z,15.63
2022-08-25T17:38:56.859Z,17.40
2022-08-25T17:41:26.137Z,13.45
2022-08-25T17:43:54.377Z,14.68
2022-08-25T17:46:24.390Z,14.98
2022-08-25T17:48:53.503Z,15.30
2022-08-25T17:51:22.949Z,15.15
2022-08-25T17:53:52.658Z,15.25
2022-08-25T17:56:24.096Z,14.48
2022-08-25T17:58:55.110Z,18.52
2022-08-25T18:01:26.372Z,19.83
2022-08-25T18:03:54.923Z,16.23
2022-08-25T18:06:25.034Z,14.15
2022-08-25T18:08:56.351Z,15.98
2022-08-25T18:11:27.948Z,16.42
2022-08-25T18:13:59.094Z,16.20
2022-08-25T18:16:28.666Z,18.70
2022-08-25T18:18:57.136Z,19.67
2022-08-25T18:21:30.232Z,21.42
2022-08-25T18:23:59.151Z,16.02
2022-08-25T18:26:28.354Z,18.33
2022-08-25T18:28:57.045Z,15.20
2022-08-25T18:31:25.663Z,17.00
2022-08-25T18:33:55.470Z,17.38
2022-08-25T18:36:23.601Z,15.43
2022-08-25T18:39:10.072Z,16.00
2022-08-25T18:41:40.410Z,20.10
2022-08-25T18:44:08.928Z,16.98
2022-08-25T18:46:39.956Z,17.00
2022-08-25T18:49:09.710Z,15.80
2022-08-25T18:51:38.150Z,15.90
2022-08-25T18:54:07.796Z,15.15
2022-08-25T18:56:51.086Z,19.45
2022-08-25T18:59:23.357Z,19.70
2022-08-25T19:01:52.894Z,20.08
2022-08-25T19:04:28.406Z,22.73
2022-08-25T19:07:00.726Z,24.70
2022-08-25T19:09:29.283Z,17.92
2022-08-25T19:11:59.094Z,16.48
2022-08-25T19:14:27.791Z,20.80
2022-08-25T19:16:58.035Z,20.10
2022-08-25T19:19:35.177Z,19.20
2022-08-25T19:22:03.695Z,15.93
2022-08-25T19:24:32.368Z,15.15
2022-08-25T19:27:02.386Z,20.42
2022-08-25T19:29:31.235Z,18.80
2022-08-25T19:32:01.534Z,24.25
2022-08-25T19:34:34.934Z,21.00
2022-08-25T19:37:06.158Z,24.60
2022-08-25T19:39:39.344Z,23.65
2022-08-25T19:42:08.600Z,24.30
2022-08-25T19:44:56.829Z,18.10
2022-08-25T19:47:25.993Z,24.58
2022-08-25T19:49:55.523Z,19.30
2022-08-25T19:52:24.944Z,21.20
2022-08-25T19:54:54.952Z,19.60
2022-08-25T19:57:42.192Z,20.55
2022-08-25T20:00:15.686Z,20.60
2022-08-25T20:02:44.239Z,20.67
2022-08-25T20:05:14.199Z,22.85
2022-08-25T20:07:43.572Z,21.63
2022-08-25T20:10:14.696Z,19.92
2022-08-25T20:12:44.644Z,20.00
2022-08-25T20:15:14.698Z,23.23
2022-08-25T20:17:46.045Z,26.95
2022-08-25T20:20:18.287Z,23.50
2022-08-25T20:22:48.079Z,22.25
2022-08-25T20:25:17.791Z,18.88
2022-08-25T20:27:49.545Z,25.17
2022-08-25T20:30:19.689Z,20.27
2022-08-25T20:32:47.881Z,21.23
2022-08-25T20:35:18.792Z,25.48
2022-08-25T20:37:48.611Z,16.55
2022-08-25T20:40:25.840Z,23.83
2022-08-25T20:42:54.864Z,17.45
2022-08-25T20:45:24.005Z,18.33
2022-08-25T20:47:53.780Z,20.38
2022-08-25T20:50:24.037Z,20.88
2022-08-25T20:52:54.161Z,21.23
2022-08-25T20:55:22.834Z,17.83
2022-08-25T20:57:51.525Z,22.93
2022-08-25T21:00:23.510Z,17.75
2022-08-25T21:02:54.113Z,20.20
2022-08-25T21:05:23.718Z,18.02
2022-08-25T21:07:52.221Z,22.10
2022-08-25T21:10:20.647Z,16.20
2022-08-25T21:12:49.425Z,15.98
2022-08-25T21:15:22.124Z,20.55
2022-08-25T21:17:53.185Z,16.33
2022-08-25T21:20:25.077Z,24.35
2022-08-25T21:22:54.357Z,25.10
2022-08-25T21:25:23.117Z,18.45
2022-08-25T21:27:51.111Z,19.17
2022-08-25T21:30:19.542Z,19.35
2022-08-25T21:32:53.123Z,20.15
2022-08-25T21:35:23.857Z,19.30
2022-08-25T21:37:53.830Z,19.00
2022-08-25T21:40:22.647Z,18.08
2022-08-25T21:42:51.335Z,20.83
2022-08-25T21:45:20.834Z,19.73
2022-08-25T21:47:49.314Z,18.33
2022-08-25T21:50:17.460Z,23.88
2022-08-25T21:52:47.217Z,27.45
2022-08-25T21:55:23.031Z,21.27
2022-08-25T21:57:51.551Z,15.38
2022-08-25T22:00:21.366Z,14.17
2022-08-25T22:02:49.997Z,16.27
2022-08-25T22:05:18.871Z,18.00
2022-08-25T22:07:48.345Z,16.40
2022-08-25T22:10:18.108Z,20.85
2022-08-25T22:12:47.117Z,16.43
2022-08-25T22:15:17.819Z,14.15
2022-08-25T22:17:48.134Z,19.02
2022-08-25T22:20:17.683Z,18.30
2022-08-25T22:22:46.093Z,17.25
2022-08-25T22:25:15.902Z,16.30
2022-08-25T22:27:44.761Z,15.63
2022-08-25T22:30:15.487Z,19.42
2022-08-25T22:32:45.405Z,18.67
2022-08-25T22:35:14.395Z,18.85
2022-08-25T22:37:43.345Z,19.30
2022-08-25T22:40:21.401Z,19.17
2022-08-25T22:42:55.355Z,17.98
2022-08-25T22:45:24.109Z,19.38
2022-08-25T22:47:55.899Z,18.65
2022-08-25T22:50:24.442Z,16.97
2022-08-25T22:52:54.417Z,21.90
2022-08-25T22:55:24.108Z,20.67
2022-08-25T22:57:55.811Z,18.27
2022-08-25T23:00:25.139Z,19.55
2022-08-25T23:02:53.601Z,22.00
2022-08-25T23:05:22.216Z,16.65
2022-08-25T23:07:50.877Z,16.17
2022-08-25T23:10:20.765Z,16.23
2022-08-25T23:12:50.154Z,20.77
2022-08-25T23:15:18.264Z,17.40
2022-08-25T23:17:46.564Z,16.45
2022-08-25T23:20:34.181Z,21.13
2022-08-25T23:23:02.188Z,20.95
2022-08-25T23:25:31.313Z,20.80
2022-08-25T23:28:00.931Z,15.93
2022-08-25T23:30:29.509Z,21.27
2022-08-25T23:32:58.891Z,17.52
2022-08-25T23:35:27.315Z,18.25
2022-08-25T23:37:58.152Z,18.45
2022-08-25T23:40:27.651Z,19.03
2022-08-25T23:42:56.140Z,18.42
2022-08-25T23:45:25.795Z,18.27
2022-08-25T23:47:54.243Z,25.15
2022-08-25T23:50:22.689Z,17.02
2022-08-25T23:52:53.075Z,16.03
2022-08-25T23:55:21.537Z,21.42
2022-08-25T23:57:51.606Z,17.83
